createdAt,value
2019-05-14T00:01:12.696Z,103265.31
2019-05-14T00:03:43.766Z,103259.28
2019-05-14T00:06:15.603Z,103265.89
2019-05-14T00:08:46.668Z,103259.80
2019-05-14T00:11:21.924Z,103271.67
2019-05-14T00:13:53.096Z,103266.82
2019-05-14T00:16:26.782Z,103271.59
2019-05-14T00:18:57.792Z,103260.23
2019-05-14T00:21:28.917Z,103263.25
2019-05-14T00:24:01.856Z,103269.40
2019-05-14T00:26:33.087Z,103270.31
2019-05-14T00:29:04.265Z,103274.86
2019-05-14T00:31:35.531Z,103274.98
2019-05-14T00:34:06.596Z,103276.55
2019-05-14T00:36:37.640Z,103277.05
2019-05-14T00:39:11.039Z,103285.44
2019-05-14T00:41:44.613Z,103289.94
2019-05-14T00:44:21.377Z,103287.28
2019-05-14T00:46:51.666Z,103291.21
2019-05-14T00:49:25.885Z,103288.48
2019-05-14T00:51:56.962Z,103293.02
2019-05-14T00:54:32.166Z,103292.50
2019-05-14T00:57:03.252Z,103289.36
2019-05-14T00:59:37.266Z,103291.48
2019-05-14T01:02:11.406Z,103295.55
2019-05-14T01:04:43.247Z,103298.14
2019-05-14T01:07:17.281Z,103291.84
2019-05-14T01:09:52.099Z,103287.02
2019-05-14T01:12:22.643Z,103288.53
2019-05-14T01:15:07.204Z,103281.02
2019-05-14T01:17:28.065Z,103270.59
2019-05-14T01:19:59.239Z,103282.31
2019-05-14T01:22:31.645Z,103283.65
2019-05-14T01:25:02.859Z,103279.27
2019-05-14T01:27:34.413Z,103290.31
2019-05-14T01:30:12.498Z,103295.13
2019-05-14T01:32:44.587Z,103296.02
2019-05-14T01:35:15.649Z,103292.57
2019-05-14T01:37:46.785Z,103300.39
2019-05-14T01:40:17.863Z,103291.72
2019-05-14T01:42:48.975Z,103286.02
2019-05-14T01:45:25.144Z,103293.39
2019-05-14T01:47:52.838Z,103299.57
2019-05-14T01:50:41.422Z,103299.20
2019-05-14T01:53:12.667Z,103301.00
2019-05-14T01:55:43.796Z,103294.48
2019-05-14T01:58:15.039Z,103296.26
2019-05-14T02:00:48.825Z,103297.20
2019-05-14T02:03:22.263Z,103296.77
2019-05-14T02:05:53.299Z,103302.97
2019-05-14T02:08:25.794Z,103299.95
2019-05-14T02:10:56.841Z,103294.66
2019-05-14T02:13:28.285Z,103307.94
2019-05-14T02:16:01.462Z,103303.99
2019-05-14T02:18:33.075Z,103310.58
2019-05-14T02:21:04.114Z,103310.16
2019-05-14T02:23:35.206Z,103304.46
2019-05-14T02:26:06.390Z,103305.34
2019-05-14T02:28:37.497Z,103309.77
2019-05-14T02:31:09.397Z,103304.55
2019-05-14T02:33:41.531Z,103301.04
2019-05-14T02:36:14.125Z,103306.75
2019-05-14T02:38:45.279Z,103294.93
2019-05-14T02:41:19.647Z,103305.50
2019-05-14T02:43:51.013Z,103307.68
2019-05-14T02:46:22.293Z,103306.84
2019-05-14T02:48:53.422Z,103310.81
2019-05-14T02:51:24.450Z,103305.14
2019-05-14T02:53:55.543Z,103307.34
2019-05-14T02:56:29.331Z,103301.23
2019-05-14T02:59:01.290Z,103298.16
2019-05-14T03:01:32.213Z,103297.30
2019-05-14T03:04:03.551Z,103294.67
2019-05-14T03:06:39.282Z,103302.13
2019-05-14T03:09:09.687Z,103295.60
2019-05-14T03:11:41.111Z,103297.33
2019-05-14T03:14:12.297Z,103292.07
2019-05-14T03:16:49.280Z,103296.02
2019-05-14T03:19:19.825Z,103304.75
2019-05-14T03:21:50.952Z,103298.90
2019-05-14T03:24:22.870Z,103299.95
2019-05-14T03:26:53.969Z,103308.48
2019-05-14T03:29:30.329Z,103303.89
2019-05-14T03:32:03.146Z,103300.52
2019-05-14T03:34:33.665Z,103299.45
2019-05-14T03:37:05.040Z,103294.51
2019-05-14T03:39:39.728Z,103303.71
2019-05-14T03:42:10.946Z,103305.51
2019-05-14T03:44:42.020Z,103304.67
2019-05-14T03:47:20.283Z,103312.47
2019-05-14T03:49:49.864Z,103308.39
2019-05-14T03:52:21.225Z,103304.28
2019-05-14T03:54:53.885Z,103311.91
2019-05-14T03:57:29.164Z,103314.76
2019-05-14T04:00:00.188Z,103317.08
2019-05-14T04:02:33.126Z,103320.47
2019-05-14T04:05:09.353Z,103319.15
2019-05-14T04:11:34.970Z,103328.35
2019-05-14T04:14:09.574Z,103322.31
2019-05-14T04:16:59.549Z,103333.98
2019-05-14T04:19:18.832Z,103337.06
2019-05-14T04:21:51.689Z,103332.86
2019-05-14T04:24:24.049Z,103339.97
2019-05-14T04:27:06.809Z,103342.84
2019-05-14T04:29:30.897Z,103339.21
2019-05-14T04:32:03.550Z,103340.79
2019-05-14T04:34:34.846Z,103340.09
2019-05-14T04:37:12.908Z,103336.90
2019-05-14T04:43:41.458Z,103346.66
2019-05-14T04:46:13.988Z,103345.12
2019-05-14T04:48:50.062Z,103348.13
2019-05-14T04:51:20.827Z,103342.42
2019-05-14T04:53:53.356Z,103346.51
2019-05-14T04:56:31.430Z,103344.69
2019-05-14T04:59:04.396Z,103328.53
2019-05-14T05:01:35.436Z,103346.53
2019-05-14T05:04:09.373Z,103347.88
2019-05-14T05:06:40.711Z,103356.22
2019-05-14T05:09:14.994Z,103357.85
2019-05-14T05:11:52.284Z,103359.66
2019-05-14T05:14:23.991Z,103356.85
2019-05-14T05:16:59.720Z,103349.89
2019-05-14T05:19:31.101Z,103365.02
2019-05-14T05:22:02.134Z,103368.16
2019-05-14T05:24:33.235Z,103369.89
2019-05-14T05:27:09.306Z,103366.05
2019-05-14T05:29:53.351Z,103366.51
2019-05-14T05:32:30.036Z,103362.14
2019-05-14T05:35:03.110Z,103365.56
2019-05-14T05:37:38.454Z,103390.47
2019-05-14T05:40:09.879Z,103379.66
2019-05-14T05:42:40.931Z,103375.38
2019-05-14T05:45:13.010Z,103380.26
2019-05-14T05:47:55.311Z,103375.41
2019-05-14T05:50:20.281Z,103380.80
2019-05-14T05:52:53.800Z,103379.92
2019-05-14T05:55:24.211Z,103373.54
2019-05-14T05:57:58.814Z,103391.59
2019-05-14T06:00:44.913Z,103365.87
2019-05-14T06:03:15.978Z,103387.22
2019-05-14T06:05:49.389Z,103383.08
2019-05-14T06:08:21.216Z,103381.27
2019-05-14T06:10:54.629Z,103379.73
2019-05-14T06:13:28.833Z,103388.24
2019-05-14T06:16:00.012Z,103389.92
2019-05-14T06:18:34.191Z,103393.20
2019-05-14T06:21:03.897Z,103392.96
2019-05-14T06:23:38.554Z,103387.36
2019-05-14T06:26:11.849Z,103384.33
2019-05-14T06:28:42.997Z,103390.45
2019-05-14T06:31:18.962Z,103378.70
2019-05-14T06:33:50.038Z,103391.69
2019-05-14T06:36:21.165Z,103384.67
2019-05-14T06:38:52.268Z,103383.64
2019-05-14T06:41:23.461Z,103389.91
2019-05-14T06:43:54.898Z,103392.15
2019-05-14T06:46:28.287Z,103386.37
2019-05-14T06:48:59.240Z,103396.17
2019-05-14T06:51:31.495Z,103354.83
2019-05-14T06:54:09.316Z,103404.78
2019-05-14T06:56:41.307Z,103394.98
2019-05-14T06:59:13.377Z,103393.73
2019-05-14T07:01:44.473Z,103391.62
2019-05-14T07:04:18.053Z,103405.33
2019-05-14T07:06:49.942Z,103394.81
2019-05-14T07:09:25.496Z,103403.14
2019-05-14T07:12:01.339Z,103371.78
2019-05-14T07:14:32.999Z,103399.63
2019-05-14T07:17:04.666Z,103401.70
2019-05-14T07:19:38.298Z,103398.16
2019-05-14T07:22:09.098Z,103397.45
2019-05-14T07:24:42.673Z,103405.22
2019-05-14T07:27:14.691Z,103389.16
2019-05-14T07:29:49.407Z,103399.72
2019-05-14T07:32:21.746Z,103400.53
2019-05-14T07:34:54.303Z,103396.86
2019-05-14T07:37:25.390Z,103404.21
2019-05-14T07:39:57.995Z,103402.64
2019-05-14T07:42:30.122Z,103408.63
2019-05-14T07:45:01.344Z,103390.30
2019-05-14T07:47:49.351Z,103401.89
2019-05-14T07:50:30.277Z,103405.98
2019-05-14T07:53:08.982Z,103400.59
2019-05-14T07:55:49.043Z,103409.75
2019-05-14T07:58:23.567Z,103407.38
2019-05-14T08:00:58.574Z,103395.50
2019-05-14T08:03:32.537Z,103407.64
2019-05-14T08:06:11.463Z,103416.09
2019-05-14T08:12:40.233Z,103392.66
2019-05-14T08:16:13.825Z,103398.25
2019-05-14T08:18:53.046Z,103400.93
2019-05-14T08:21:48.100Z,103400.94
2019-05-14T08:28:35.131Z,103393.47
2019-05-14T08:31:21.161Z,103373.84
2019-05-14T08:33:54.919Z,103381.48
2019-05-14T08:36:26.072Z,103370.36
2019-05-14T08:39:00.375Z,103365.76
2019-05-14T08:44:42.111Z,103377.34
2019-05-14T08:47:25.997Z,103366.67
2019-05-14T08:50:21.569Z,103378.91
2019-05-14T08:55:38.579Z,103368.08
2019-05-14T08:58:19.893Z,103358.02
2019-05-14T09:00:42.807Z,103360.52
2019-05-14T09:03:14.122Z,103370.50
2019-05-14T09:05:45.459Z,103364.18
2019-05-14T09:08:18.952Z,103356.09
2019-05-14T09:10:51.257Z,103366.98
2019-05-14T09:13:23.837Z,103374.02
2019-05-14T09:15:55.080Z,103374.01
2019-05-14T09:18:30.402Z,103364.99
2019-05-14T09:21:01.589Z,103381.98
2019-05-14T09:23:33.991Z,103363.06
2019-05-14T09:26:05.981Z,103348.21
2019-05-14T09:28:39.545Z,103352.62
2019-05-14T09:31:10.861Z,103340.02
2019-05-14T09:33:41.983Z,103347.28
2019-05-14T09:36:24.141Z,103334.80
2019-05-14T09:38:58.342Z,103321.91
2019-05-14T09:41:31.303Z,103357.89
2019-05-14T09:44:13.393Z,103349.24
2019-05-14T09:46:45.380Z,103329.63
2019-05-14T09:49:22.844Z,103336.22
2019-05-14T09:51:54.961Z,103352.79
2019-05-14T09:54:28.790Z,103343.38
2019-05-14T09:57:00.081Z,103342.84
2019-05-14T09:59:31.181Z,103339.14
2019-05-14T10:02:02.479Z,103359.71
2019-05-14T10:04:35.439Z,103341.48
2019-05-14T10:07:10.558Z,103349.92
2019-05-14T10:09:43.709Z,103336.27
2019-05-14T10:12:14.842Z,103350.16
2019-05-14T10:14:49.077Z,103342.22
2019-05-14T10:17:20.211Z,103348.44
2019-05-14T10:19:52.777Z,103349.66
2019-05-14T10:22:28.578Z,103331.60
2019-05-14T10:25:09.087Z,103341.90
2019-05-14T10:27:59.059Z,103336.27
2019-05-14T10:30:31.759Z,103324.76
2019-05-14T10:33:10.796Z,103333.17
2019-05-14T10:35:39.084Z,103328.39
2019-05-14T10:38:13.288Z,103320.50
2019-05-14T10:40:50.264Z,103303.59
2019-05-14T10:43:20.542Z,103321.53
2019-05-14T10:45:52.784Z,103325.88
2019-05-14T10:48:26.296Z,103319.45
2019-05-14T10:51:03.317Z,103311.92
2019-05-14T10:53:35.690Z,103314.29
2019-05-14T10:56:09.801Z,103316.58
2019-05-14T10:58:41.016Z,103316.83
2019-05-14T11:01:15.457Z,103303.77
2019-05-14T11:03:48.413Z,103291.75
2019-05-14T11:06:19.619Z,103304.59
2019-05-14T11:08:53.154Z,103293.55
2019-05-14T11:11:29.061Z,103314.47
2019-05-14T11:14:03.196Z,103290.59
2019-05-14T11:16:41.459Z,103298.92
2019-05-14T11:19:09.643Z,103286.32
2019-05-14T11:21:52.875Z,103291.75
2019-05-14T11:24:29.699Z,103268.69
2019-05-14T11:27:07.994Z,103297.55
2019-05-14T11:29:50.327Z,103262.00
2019-05-14T11:32:24.927Z,103278.70
2019-05-14T11:34:59.170Z,103284.13
2019-05-14T11:37:31.338Z,103266.66
2019-05-14T11:40:11.308Z,103260.77
2019-05-14T11:43:39.024Z,103261.06
2019-05-14T11:46:47.736Z,103272.16
2019-05-14T11:49:10.323Z,103262.20
2019-05-14T11:52:06.157Z,103269.05
2019-05-14T11:54:42.985Z,103272.66
2019-05-14T12:01:10.855Z,103262.88
2019-05-14T12:10:42.865Z,103260.55
2019-05-14T12:13:14.504Z,103268.16
2019-05-14T12:15:51.292Z,103275.87
2019-05-14T12:18:21.072Z,103267.50
2019-05-14T12:24:31.837Z,103268.95
2019-05-14T12:27:28.620Z,103275.02
2019-05-14T12:29:44.606Z,103266.70
2019-05-14T12:32:34.788Z,103257.69
2019-05-14T13:04:20.107Z,103238.91
2019-05-14T13:29:13.960Z,103218.15
2019-05-14T14:12:40.541Z,103181.95
2019-05-14T14:45:21.753Z,103151.17
2019-05-14T15:45:15.234Z,103126.38
2019-05-14T16:02:00.004Z,103100.76
2019-05-14T16:04:38.809Z,103101.88
2019-05-14T16:11:56.330Z,103097.92
2019-05-14T16:13:42.821Z,103102.81
2019-05-14T16:23:18.791Z,103086.58
2019-05-14T16:26:11.324Z,103073.58
2019-05-14T16:32:19.203Z,103088.48
2019-05-14T16:38:48.166Z,103079.39
2019-05-14T17:03:12.618Z,103075.31
2019-05-14T17:09:49.297Z,103067.80
2019-05-14T17:12:23.199Z,103065.16
2019-05-14T17:14:54.331Z,103070.13
2019-05-14T17:17:33.047Z,103075.09
2019-05-14T17:24:11.557Z,103067.57
2019-05-14T17:26:49.588Z,103078.00
2019-05-14T17:29:21.691Z,103065.77
2019-05-14T17:31:54.235Z,103047.40
2019-05-14T17:34:30.234Z,103062.39
2019-05-14T17:37:02.930Z,103069.47
2019-05-14T17:39:38.733Z,103061.41
2019-05-14T17:42:12.739Z,103061.98
2019-05-14T17:44:43.930Z,103057.64
2019-05-14T17:47:15.096Z,103060.28
2019-05-14T17:49:50.000Z,103058.56
2019-05-14T17:52:33.265Z,103055.48
2019-05-14T18:39:21.250Z,103057.95
2019-05-14T18:42:19.842Z,103065.53
2019-05-14T18:44:49.811Z,103068.20
2019-05-14T18:58:26.189Z,103065.13
2019-05-14T19:01:15.884Z,103060.70
2019-05-14T19:07:48.816Z,103058.14
2019-05-14T19:14:15.153Z,103057.82
2019-05-14T19:24:22.120Z,103050.10
2019-05-14T19:26:53.301Z,103045.12
2019-05-14T19:29:24.534Z,103050.23
2019-05-14T19:31:59.359Z,103049.32
2019-05-14T19:34:30.596Z,103044.13
2019-05-14T19:37:04.491Z,103037.54
2019-05-14T19:39:42.593Z,103041.93
2019-05-14T19:42:22.422Z,103033.98
2019-05-14T19:44:53.662Z,103045.12
2019-05-14T19:47:25.395Z,103032.27
2019-05-14T19:50:00.009Z,103028.72
2019-05-14T19:52:39.566Z,103038.53
2019-05-14T19:55:15.880Z,103037.22
2019-05-14T20:01:50.816Z,103026.35
2019-05-14T20:04:29.407Z,103026.39
2019-05-14T20:15:27.578Z,103024.78
2019-05-14T20:18:01.661Z,103021.45
2019-05-14T20:20:32.838Z,103024.23
2019-05-14T20:23:03.880Z,103017.97
2019-05-14T20:25:36.009Z,103015.70
2019-05-14T20:28:08.775Z,103021.33
2019-05-14T20:30:39.998Z,103022.69
2019-05-14T20:33:12.694Z,103019.94
2019-05-14T20:35:44.111Z,103018.18
2019-05-14T20:38:15.246Z,103014.59
2019-05-14T20:40:48.489Z,103012.83
2019-05-14T20:43:21.672Z,103013.58
2019-05-14T20:45:53.579Z,103004.52
2019-05-14T20:48:24.626Z,103000.17
2019-05-14T20:50:57.858Z,102986.59
2019-05-14T20:53:30.074Z,102983.13
2019-05-14T20:56:01.215Z,102973.86
2019-05-14T20:58:32.248Z,102986.36
2019-05-14T21:01:11.118Z,102981.97
2019-05-14T21:03:40.521Z,102979.02
2019-05-14T21:06:11.666Z,102975.34
2019-05-14T21:08:43.121Z,102979.92
2019-05-14T21:11:19.061Z,102975.66
2019-05-14T21:13:50.310Z,102978.57
2019-05-14T21:16:21.626Z,102977.61
2019-05-14T21:18:52.744Z,102977.93
2019-05-14T21:21:23.784Z,102980.25
2019-05-14T21:23:58.486Z,102983.08
2019-05-14T21:26:29.375Z,102976.13
2019-05-14T21:29:00.449Z,102978.73
2019-05-14T21:31:32.365Z,102972.54
2019-05-14T21:34:05.041Z,102962.09
2019-05-14T21:36:36.203Z,102962.28
2019-05-14T21:39:10.514Z,102969.16
2019-05-14T21:41:44.563Z,102961.69
2019-05-14T21:44:18.806Z,102969.71
2019-05-14T21:46:50.823Z,102971.27
2019-05-14T21:49:21.973Z,102977.06
2019-05-14T21:51:53.039Z,102979.66
2019-05-14T21:54:24.153Z,102979.53
2019-05-14T21:56:55.317Z,102970.02
2019-05-14T21:59:28.079Z,102969.91
2019-05-14T22:06:19.857Z,102959.89
2019-05-14T22:08:50.930Z,102956.50
2019-05-14T22:11:28.206Z,102948.34
2019-05-14T22:13:59.443Z,102945.88
2019-05-14T22:16:30.769Z,102946.62
2019-05-14T22:19:01.804Z,102940.12
2019-05-14T22:21:33.090Z,102939.33
2019-05-14T22:24:05.841Z,102935.30
2019-05-14T22:26:38.869Z,102938.80
2019-05-14T22:29:10.017Z,102927.80
2019-05-14T22:31:41.091Z,102921.64
2019-05-14T22:34:12.115Z,102921.16
2019-05-14T22:36:43.369Z,102924.27
2019-05-14T22:39:19.794Z,102926.08
2019-05-14T22:41:48.870Z,102928.27
2019-05-14T22:44:21.478Z,102925.09
2019-05-14T22:46:52.522Z,102924.01
2019-05-14T22:49:23.591Z,102930.95
2019-05-14T22:51:55.554Z,102919.13
2019-05-14T22:54:29.168Z,102915.14
2019-05-14T22:57:02.710Z,102919.70
2019-05-14T22:59:33.853Z,102917.78
2019-05-14T23:02:04.935Z,102921.41
2019-05-14T23:04:38.459Z,102908.80
2019-05-14T23:07:10.550Z,102911.31
2019-05-14T23:09:41.641Z,102903.89
2019-05-14T23:12:13.295Z,102906.09
2019-05-14T23:14:44.376Z,102899.98
2019-05-14T23:17:15.595Z,102898.19
2019-05-14T23:19:49.772Z,102888.39
2019-05-14T23:22:24.699Z,102884.97
2019-05-14T23:24:59.206Z,102886.77
2019-05-14T23:27:30.077Z,102883.61
2019-05-14T23:30:01.978Z,102874.79
2019-05-14T23:32:33.095Z,102868.20
2019-05-14T23:35:05.647Z,102866.53
2019-05-14T23:37:38.321Z,102872.41
2019-05-14T23:40:09.430Z,102867.49
2019-05-14T23:42:40.558Z,102868.81
2019-05-14T23:45:11.698Z,102867.97
2019-05-14T23:47:42.812Z,102868.20
2019-05-14T23:50:19.714Z,102868.98
2019-05-14T23:52:50.826Z,102873.28
2019-05-14T23:55:21.828Z,102867.98
2019-05-14T23:57:52.949Z,102873.59
